Little Sioux, Iowa
Current Conditions -  °F | °C
As of 1:54 AM on Thursday 29 Jan 2015 (Local Time) from KTQE Reporting Station
Overcast Overcast  
Wind Chill: 27°   Ceiling: 2300
Heat Index: 38°   Visibility: 10mi
Dew Point: 29°   Wind: 24mph
Humidity: 70%   Direction: 340°NNW
Pressure: 30.06"   Gusts: 38mph
Location:  41.81°N, 96.02°W
Report Text: KTQE 290754Z AUTO 34021G33KT 10SM OVC023 03/M02 A3006 RMK AO2 PK WND 34041/0713 SLP181 T00331017
Loading
Personal Weather Stations






























Interactive Weather Map New forecast layout! Learn more

10-Day Weather Forecast

Advertisements
Track Severe Weather on mobile